Time;durP1;ratioP1;P1;durP2;ratioP2;P2;SDS_P1;SDS_P2;PMS_P1;PMS_P2;Temp;Humidity;BMP_temperature;BMP_pressure;BME280_temperature;BME280_humidity;BME280_pressure;Samples;Min_cycle;Max_cycle;Signal;HPM_P1;HPM_P2
2023/09/03 00:01:33;;;;;;;0.03;0.03;;;18.60;99.90;;;;;;5042265;28;20057;-73
2023/09/03 00:03:59;;;;;;;0.00;0.00;;;18.50;99.90;;;;;;5043505;28;20033;-72
2023/09/03 00:06:24;;;;;;;0.20;0.20;;;18.60;99.90;;;;;;5043154;28;20044;-72
2023/09/03 00:08:50;;;;;;;0.23;0.23;;;18.50;99.90;;;;;;5043065;28;20386;-71
2023/09/03 00:11:16;;;;;;;0.00;0.00;;;18.50;99.90;;;;;;5042713;28;20029;-72
2023/09/03 00:13:43;;;;;;;0.00;0.00;;;18.50;99.90;;;;;;5043108;28;20593;-72
2023/09/03 00:16:09;;;;;;;0.00;0.00;;;18.50;99.90;;;;;;5042450;28;20068;-72
2023/09/03 00:18:36;;;;;;;0.00;0.00;;;18.40;99.90;;;;;;5042829;28;20052;-71
2023/09/03 00:21:03;;;;;;;0.00;0.00;;;18.40;99.90;;;;;;5042774;28;20068;-72
2023/09/03 00:23:30;;;;;;;0.00;0.00;;;18.30;99.90;;;;;;5041309;28;20140;-71
2023/09/03 00:25:56;;;;;;;0.15;0.15;;;18.20;99.90;;;;;;5042665;28;20043;-72
2023/09/03 00:28:23;;;;;;;0.00;0.00;;;18.20;99.90;;;;;;5042818;28;20501;-72
2023/09/03 00:31:07;;;;;;;0.00;0.00;;;18.10;99.90;;;;;;5042738;28;20457;-71
2023/09/03 00:33:33;;;;;;;0.00;0.00;;;18.20;99.90;;;;;;5034658;28;20028;-72
2023/09/03 00:36:03;;;;;;;0.00;0.00;;;18.20;99.90;;;;;;5041242;28;20626;-71
2023/09/03 00:38:28;;;;;;;0.00;0.00;;;18.20;99.90;;;;;;5042605;28;20021;-72
2023/09/03 00:40:54;;;;;;;0.00;0.00;;;18.20;99.90;;;;;;5042545;28;20025;-72
2023/09/03 00:43:20;;;;;;;0.00;0.00;;;18.10;99.90;;;;;;5043668;28;20087;-73
2023/09/03 00:45:47;;;;;;;0.57;0.57;;;18.10;99.90;;;;;;5042979;28;20029;-72
2023/09/03 00:48:18;;;;;;;0.00;0.00;;;18.10;99.90;;;;;;5042474;28;20029;-72
2023/09/03 00:50:46;;;;;;;0.00;0.00;;;18.10;99.90;;;;;;5042631;28;20496;-72
2023/09/03 00:53:13;;;;;;;0.00;0.00;;;18.00;99.90;;;;;;5042353;28;20530;-72
2023/09/03 00:55:39;;;;;;;0.00;0.00;;;18.00;99.90;;;;;;5042577;28;20400;-71
2023/09/03 00:58:06;;;;;;;0.00;0.00;;;17.90;99.90;;;;;;5044132;28;20033;-72
2023/09/03 01:00:33;;;;;;;0.00;0.00;;;17.90;99.90;;;;;;5043361;28;20110;-72
2023/09/03 01:03:00;;;;;;;0.00;0.00;;;17.80;99.90;;;;;;5042347;28;20060;-71
2023/09/03 01:05:26;;;;;;;0.00;0.00;;;17.80;99.90;;;;;;5042590;28;20052;-72
2023/09/03 01:07:53;;;;;;;0.00;0.00;;;17.80;99.90;;;;;;5047455;28;20849;-73
2023/09/03 01:10:20;;;;;;;;;;;17.80;99.90;;;;;;5046718;28;20020;-72
2023/09/03 01:13:33;;;;;;;0.00;0.00;;;17.70;99.90;;;;;;5047030;28;19916;-72
2023/09/03 01:16:03;;;;;;;0.08;0.08;;;17.70;99.90;;;;;;4984376;28;20412;-71
2023/09/03 01:18:30;;;;;;;0.00;0.00;;;17.70;99.90;;;;;;4983970;28;20031;-72
2023/09/03 01:21:16;;;;;;;;;;;17.70;99.90;;;;;;5015121;28;20051;-72
2023/09/03 01:24:19;;;;;;;0.00;0.00;;;17.60;99.90;;;;;;5049716;28;20405;-72
2023/09/03 01:27:14;;;;;;;0.00;0.00;;;17.70;99.90;;;;;;5046378;28;20132;-71
2023/09/03 01:29:42;;;;;;;0.00;0.00;;;17.70;99.90;;;;;;5028469;28;20037;-72
2023/09/03 01:32:09;;;;;;;0.00;0.00;;;17.70;99.90;;;;;;5040866;28;20493;-72
2023/09/03 01:34:36;;;;;;;1.95;1.85;;;17.70;99.90;;;;;;5040311;28;20207;-72
2023/09/03 01:37:03;;;;;;;;;;;17.60;99.90;;;;;;5045857;28;20075;-72
2023/09/03 01:39:28;;;;;;;;;;;17.60;99.90;;;;;;5045922;28;19912;-72
2023/09/03 01:41:54;;;;;;;0.00;0.00;;;17.50;99.90;;;;;;5045732;28;20455;-71
2023/09/03 01:44:20;;;;;;;0.00;0.00;;;17.40;99.90;;;;;;5046961;28;20035;-72
2023/09/03 01:47:00;;;;;;;0.00;0.00;;;17.50;99.90;;;;;;5046592;28;20021;-72
2023/09/03 01:49:54;;;;;;;0.00;0.00;;;17.50;99.90;;;;;;5036314;28;20032;-72
2023/09/03 01:52:37;;;;;;;0.00;0.00;;;17.60;99.90;;;;;;5042832;28;20040;-72
2023/09/03 01:55:08;;;;;;;0.00;0.00;;;17.50;99.90;;;;;;5045775;28;20049;-74
2023/09/03 01:57:40;;;;;;;0.00;0.00;;;17.50;99.90;;;;;;5034366;28;20037;-71
2023/09/03 02:00:11;;;;;;;0.00;0.00;;;17.50;99.90;;;;;;5045583;28;20033;-72
2023/09/03 02:02:38;;;;;;;0.00;0.00;;;17.50;99.90;;;;;;5045355;28;20100;-72
2023/09/03 02:05:06;;;;;;;0.00;0.00;;;17.50;99.90;;;;;;5045544;28;20061;-71
2023/09/03 02:07:32;;;;;;;0.00;0.00;;;17.50;99.90;;;;;;5045000;28;20032;-72
2023/09/03 02:09:57;;;;;;;0.00;0.00;;;17.50;99.90;;;;;;5044954;28;20033;-73
2023/09/03 02:12:26;;;;;;;0.00;0.00;;;17.40;99.90;;;;;;5045253;28;20017;-71
2023/09/03 02:14:52;;;;;;;0.00;0.00;;;17.40;99.90;;;;;;5045110;28;20408;-73
2023/09/03 02:17:21;;;;;;;0.00;0.00;;;17.40;99.90;;;;;;5045218;28;20033;-71
2023/09/03 02:19:50;;;;;;;0.00;0.00;;;17.30;99.90;;;;;;5042188;28;20567;-71
2023/09/03 02:22:16;;;;;;;0.00;0.00;;;17.30;99.90;;;;;;5038264;28;20066;-73
2023/09/03 02:24:42;;;;;;;0.10;0.10;;;17.40;99.90;;;;;;5044881;28;20100;-72
2023/09/03 02:27:08;;;;;;;0.00;0.00;;;17.30;99.90;;;;;;5037611;28;20031;-72
2023/09/03 02:29:34;;;;;;;0.00;0.00;;;17.30;99.90;;;;;;5044586;28;20029;-73
2023/09/03 02:32:00;;;;;;;0.32;0.20;;;17.40;99.90;;;;;;5043879;28;20808;-72
2023/09/03 02:34:26;;;;;;;0.00;0.00;;;17.40;99.90;;;;;;5036975;28;20049;-72
2023/09/03 02:36:51;;;;;;;0.00;0.00;;;17.30;99.90;;;;;;5044318;28;20114;-72
2023/09/03 02:39:17;;;;;;;0.00;0.00;;;17.30;99.90;;;;;;5044121;28;20029;-72
2023/09/03 02:41:43;;;;;;;0.00;0.00;;;17.30;99.90;;;;;;5044248;28;20094;-74
2023/09/03 02:44:09;;;;;;;0.20;0.20;;;17.30;99.90;;;;;;5044767;28;20033;-72
2023/09/03 02:46:35;;;;;;;0.00;0.00;;;17.30;99.90;;;;;;5044614;28;20358;-73
2023/09/03 02:49:01;;;;;;;0.00;0.00;;;17.20;99.90;;;;;;5044680;28;20263;-72
2023/09/03 02:51:27;;;;;;;0.10;0.10;;;17.20;99.90;;;;;;5044589;28;20108;-73
2023/09/03 02:53:54;;;;;;;0.00;0.00;;;17.10;99.90;;;;;;5044287;28;20039;-72
2023/09/03 02:56:22;;;;;;;0.00;0.00;;;17.20;99.90;;;;;;5045062;28;20060;-73
2023/09/03 02:58:48;;;;;;;0.00;0.00;;;17.20;99.90;;;;;;5042756;28;20025;-72
2023/09/03 03:01:16;;;;;;;0.00;0.00;;;17.20;99.90;;;;;;5043894;28;20037;-72
2023/09/03 03:03:42;;;;;;;0.03;0.03;;;17.30;99.90;;;;;;5044464;28;20020;-73
2023/09/03 03:06:08;;;;;;;0.00;0.00;;;17.30;99.90;;;;;;5044057;28;20036;-73
2023/09/03 03:08:34;;;;;;;0.00;0.00;;;17.10;99.90;;;;;;5043914;28;20116;-73
2023/09/03 03:11:11;;;;;;;0.00;0.00;;;17.10;99.90;;;;;;5050564;28;20214;-71
2023/09/03 03:13:40;;;;;;;0.00;0.00;;;17.10;99.90;;;;;;5043933;28;20074;-71
2023/09/03 03:16:09;;;;;;;0.00;0.00;;;17.10;99.90;;;;;;5042498;28;20084;-72
2023/09/03 03:18:36;;;;;;;0.00;0.00;;;17.00;99.90;;;;;;5043693;28;20021;-72
2023/09/03 03:21:09;;;;;;;0.00;0.00;;;17.00;99.90;;;;;;5044012;28;20108;-72
2023/09/03 03:23:35;;;;;;;0.00;0.00;;;17.00;99.90;;;;;;5044850;28;20021;-71
2023/09/03 03:26:02;;;;;;;0.00;0.00;;;17.00;99.90;;;;;;5050807;28;20035;-72
2023/09/03 03:28:31;;;;;;;0.00;0.00;;;17.00;99.90;;;;;;5043266;28;20021;-71
2023/09/03 03:30:58;;;;;;;0.00;0.00;;;17.00;99.90;;;;;;5042112;28;20033;-72
2023/09/03 03:33:25;;;;;;;0.00;0.00;;;16.90;99.90;;;;;;5036788;28;20396;-72
2023/09/03 03:35:50;;;;;;;0.00;0.00;;;16.90;99.90;;;;;;5043644;28;20033;-72
2023/09/03 03:38:16;;;;;;;0.20;0.20;;;16.90;99.90;;;;;;5043176;28;20029;-71
2023/09/03 03:40:42;;;;;;;0.00;0.00;;;16.90;99.90;;;;;;5042127;28;20198;-73
2023/09/03 03:43:07;;;;;;;0.00;0.00;;;16.80;99.90;;;;;;5043802;28;20025;-72
2023/09/03 03:45:33;;;;;;;0.00;0.00;;;16.80;99.90;;;;;;5043657;28;20558;-72
2023/09/03 03:47:59;;;;;;;0.00;0.00;;;16.80;99.90;;;;;;5042526;28;20093;-72
2023/09/03 03:50:25;;;;;;;0.00;0.00;;;16.70;99.90;;;;;;5044127;28;20029;-72
2023/09/03 03:52:50;;;;;;;0.00;0.00;;;16.70;99.90;;;;;;5041926;28;20079;-72
2023/09/03 03:55:16;;;;;;;0.00;0.00;;;16.80;99.90;;;;;;5043076;28;20048;-72
2023/09/03 03:57:41;;;;;;;0.10;0.10;;;16.80;99.90;;;;;;5043264;28;20044;-72
2023/09/03 04:00:08;;;;;;;0.00;0.00;;;16.70;99.90;;;;;;5042197;28;20029;-71
2023/09/03 04:02:33;;;;;;;0.00;0.00;;;16.70;99.90;;;;;;5043396;28;20051;-74
2023/09/03 04:04:59;;;;;;;0.00;0.00;;;16.60;99.90;;;;;;5043107;28;20050;-71
2023/09/03 04:07:25;;;;;;;0.20;0.20;;;16.70;99.90;;;;;;5042891;28;20033;-72
2023/09/03 04:09:50;;;;;;;0.20;0.20;;;16.70;99.90;;;;;;5044427;28;20406;-72
2023/09/03 04:12:16;;;;;;;0.00;0.00;;;16.70;99.90;;;;;;5042838;28;20024;-71
2023/09/03 04:14:42;;;;;;;0.00;0.00;;;16.60;99.90;;;;;;5042679;28;20102;-71
2023/09/03 04:17:07;;;;;;;0.00;0.00;;;16.60;99.90;;;;;;5042855;28;20037;-72
2023/09/03 04:19:33;;;;;;;0.00;0.00;;;16.50;99.90;;;;;;5042653;28;20036;-72
2023/09/03 04:21:59;;;;;;;0.00;0.00;;;16.50;99.90;;;;;;5043054;28;20079;-71
2023/09/03 04:24:25;;;;;;;0.00;0.00;;;16.40;99.90;;;;;;5042795;28;20029;-72
2023/09/03 04:26:50;;;;;;;0.00;0.00;;;16.40;99.90;;;;;;5042960;28;20028;-72
2023/09/03 04:29:16;;;;;;;0.00;0.00;;;16.40;99.90;;;;;;5042001;28;20032;-72
2023/09/03 04:31:42;;;;;;;0.00;0.00;;;16.40;99.90;;;;;;5042705;28;20028;-73
2023/09/03 04:34:08;;;;;;;0.00;0.00;;;16.40;99.90;;;;;;5038151;28;20049;-73
2023/09/03 04:36:34;;;;;;;0.10;0.10;;;16.30;99.90;;;;;;5042813;28;20079;-72
2023/09/03 04:39:00;;;;;;;0.00;0.00;;;16.30;99.90;;;;;;5042313;28;20145;-72
2023/09/03 04:41:26;;;;;;;0.00;0.00;;;16.20;99.90;;;;;;5042161;28;20032;-71
2023/09/03 04:44:06;;;;;;;0.00;0.00;;;16.10;99.90;;;;;;5042369;28;20033;-71
2023/09/03 04:46:31;;;;;;;0.00;0.00;;;16.10;99.90;;;;;;5041533;28;20044;-71
2023/09/03 04:48:57;;;;;;;0.00;0.00;;;16.10;99.90;;;;;;5043767;28;20029;-71
2023/09/03 04:51:22;;;;;;;0.00;0.00;;;16.00;99.90;;;;;;5042839;28;20511;-72
2023/09/03 04:53:48;;;;;;;0.00;0.00;;;16.00;99.90;;;;;;5052831;28;20108;-71
2023/09/03 04:56:14;;;;;;;0.03;0.03;;;16.00;99.90;;;;;;5042776;28;20037;-71
2023/09/03 04:58:40;;;;;;;0.00;0.00;;;16.00;99.90;;;;;;5042789;28;20546;-72
2023/09/03 05:01:15;;;;;;;0.10;0.10;;;16.00;99.90;;;;;;5042975;28;20041;-71
2023/09/03 05:03:40;;;;;;;0.00;0.00;;;16.00;99.90;;;;;;5042191;28;20112;-72
2023/09/03 05:06:06;;;;;;;0.00;0.00;;;16.10;99.90;;;;;;5043189;28;20036;-71
2023/09/03 05:08:32;;;;;;;0.00;0.00;;;16.00;99.90;;;;;;5041528;28;20755;-72
2023/09/03 05:11:06;;;;;;;0.00;0.00;;;16.00;99.90;;;;;;5041960;28;20075;-71
2023/09/03 05:13:31;;;;;;;0.10;0.10;;;16.00;99.90;;;;;;5042303;28;20025;-71
2023/09/03 05:15:57;;;;;;;0.00;0.00;;;15.90;99.90;;;;;;5050513;28;20096;-71
2023/09/03 05:18:23;;;;;;;0.00;0.00;;;16.00;99.90;;;;;;5040552;28;20094;-71
2023/09/03 05:20:48;;;;;;;0.07;0.07;;;16.00;99.90;;;;;;5041915;28;20028;-71
2023/09/03 05:23:14;;;;;;;0.00;0.00;;;16.00;99.90;;;;;;5041865;28;20569;-72
2023/09/03 05:25:39;;;;;;;0.07;0.07;;;16.00;99.90;;;;;;5043744;28;20025;-72
2023/09/03 05:28:05;;;;;;;0.00;0.00;;;16.10;99.90;;;;;;5044354;28;20036;-74
2023/09/03 05:30:31;;;;;;;0.00;0.00;;;16.10;99.90;;;;;;5042016;28;20036;-71
2023/09/03 05:32:56;;;;;;;0.00;0.00;;;16.50;99.90;;;;;;5036189;28;20848;-71
2023/09/03 05:35:22;;;;;;;0.00;0.00;;;17.00;99.90;;;;;;5040446;28;20512;-73
2023/09/03 05:37:48;;;;;;;0.00;0.00;;;17.20;99.90;;;;;;5041582;28;20044;-72
2023/09/03 05:40:13;;;;;;;0.00;0.00;;;17.40;99.90;;;;;;5041600;28;20111;-72
2023/09/03 05:42:39;;;;;;;0.00;0.00;;;17.60;99.90;;;;;;5041509;28;20867;-71
2023/09/03 05:45:05;;;;;;;0.20;0.20;;;18.00;99.90;;;;;;5043058;28;20039;-71
2023/09/03 05:47:31;;;;;;;0.00;0.00;;;18.20;99.90;;;;;;5041632;28;20461;-71
2023/09/03 05:49:57;;;;;;;0.00;0.00;;;18.30;99.90;;;;;;5043663;28;20033;-72
2023/09/03 05:52:23;;;;;;;0.00;0.00;;;18.60;99.90;;;;;;5042255;28;20017;-73
2023/09/03 05:54:48;;;;;;;0.00;0.00;;;18.60;99.90;;;;;;5044893;28;20433;-72
2023/09/03 05:57:14;;;;;;;0.00;0.00;;;19.00;99.90;;;;;;5043986;28;20087;-72
2023/09/03 05:59:40;;;;;;;0.00;0.00;;;19.10;99.90;;;;;;5045509;28;20080;-72
2023/09/03 06:02:05;;;;;;;0.00;0.00;;;18.90;99.90;;;;;;5045251;28;20025;-71
2023/09/03 06:04:31;;;;;;;0.00;0.00;;;18.90;99.90;;;;;;5044657;28;20032;-71
2023/09/03 06:06:57;;;;;;;0.00;0.00;;;18.90;99.90;;;;;;5045138;28;20108;-71
2023/09/03 06:09:22;;;;;;;0.00;0.00;;;17.90;99.90;;;;;;5046686;28;20082;-73
2023/09/03 06:11:49;;;;;;;0.00;0.00;;;17.50;99.90;;;;;;5045307;28;20143;-72
2023/09/03 06:14:15;;;;;;;0.00;0.00;;;17.90;99.90;;;;;;5046795;28;20052;-72
2023/09/03 06:16:40;;;;;;;0.00;0.00;;;19.30;99.90;;;;;;5046678;28;20559;-72
2023/09/03 06:19:06;;;;;;;0.00;0.00;;;19.20;99.90;;;;;;5044982;28;20107;-73
2023/09/03 06:21:32;;;;;;;0.00;0.00;;;19.90;99.90;;;;;;5045257;28;20758;-71
2023/09/03 06:23:57;;;;;;;0.00;0.00;;;20.00;99.90;;;;;;5044700;28;20444;-72
2023/09/03 06:26:23;;;;;;;0.10;0.10;;;20.50;99.90;;;;;;5044999;28;20057;-72
2023/09/03 06:28:49;;;;;;;0.00;0.00;;;21.20;99.90;;;;;;5043244;28;20785;-72
2023/09/03 06:31:15;;;;;;;0.00;0.00;;;20.90;99.90;;;;;;5044615;28;20025;-73
2023/09/03 06:33:41;;;;;;;0.00;0.00;;;21.20;99.90;;;;;;5037759;28;20395;-72
2023/09/03 06:36:07;;;;;;;0.00;0.00;;;21.10;99.90;;;;;;5044511;28;20555;-72
2023/09/03 06:38:33;;;;;;;0.00;0.00;;;21.80;99.90;;;;;;5044556;28;20029;-72
2023/09/03 06:40:58;;;;;;;0.00;0.00;;;21.90;99.90;;;;;;5044333;28;20021;-72
2023/09/03 06:43:24;;;;;;;0.00;0.00;;;22.20;99.60;;;;;;5044315;28;20100;-73
2023/09/03 06:45:50;;;;;;;0.00;0.00;;;22.20;98.70;;;;;;5044860;28;20777;-72
2023/09/03 06:48:15;;;;;;;0.00;0.00;;;21.20;99.90;;;;;;5045502;28;20459;-71
2023/09/03 06:50:41;;;;;;;0.00;0.00;;;21.20;99.90;;;;;;5045078;28;20098;-72
2023/09/03 06:53:07;;;;;;;0.00;0.00;;;21.50;99.80;;;;;;5044316;28;20128;-72
2023/09/03 06:55:33;;;;;;;0.00;0.00;;;22.20;98.60;;;;;;5044475;28;20727;-71
2023/09/03 06:57:58;;;;;;;0.00;0.00;;;22.30;97.40;;;;;;5044618;28;20044;-71
2023/09/03 07:00:24;;;;;;;0.00;0.00;;;22.40;96.80;;;;;;5045382;28;20047;-72
2023/09/03 07:02:50;;;;;;;0.00;0.00;;;22.90;96.40;;;;;;5044129;28;20028;-73
2023/09/03 07:05:15;;;;;;;0.00;0.00;;;23.00;95.70;;;;;;5043646;28;20037;-73
2023/09/03 07:07:42;;;;;;;0.00;0.00;;;23.10;95.20;;;;;;5043771;28;20032;-71
2023/09/03 07:10:08;;;;;;;0.00;0.00;;;23.10;95.30;;;;;;5042331;28;20685;-73
2023/09/03 07:12:33;;;;;;;0.00;0.00;;;23.20;94.30;;;;;;5043957;28;20025;-72
2023/09/03 07:14:59;;;;;;;0.00;0.00;;;23.60;93.50;;;;;;5044333;28;20948;-72
2023/09/03 07:17:24;;;;;;;0.00;0.00;;;23.70;93.50;;;;;;5043570;28;20033;-71
2023/09/03 07:19:54;;;;;;;0.00;0.00;;;24.10;92.50;;;;;;5044044;28;20845;-72
2023/09/03 07:22:20;;;;;;;0.00;0.00;;;24.80;91.10;;;;;;5043549;28;20116;-72
2023/09/03 07:24:46;;;;;;;0.00;0.00;;;24.70;90.80;;;;;;5043369;28;20404;-72
2023/09/03 07:27:11;;;;;;;0.00;0.00;;;25.20;88.80;;;;;;5043438;28;20032;-72
2023/09/03 07:29:37;;;;;;;0.00;0.00;;;25.30;87.30;;;;;;5043809;28;20252;-74
2023/09/03 07:32:03;;;;;;;0.00;0.00;;;25.70;87.00;;;;;;5042495;28;20120;-72
2023/09/03 07:34:29;;;;;;;0.00;0.00;;;26.30;83.70;;;;;;5038229;28;20143;-72
2023/09/03 07:36:54;;;;;;;0.00;0.00;;;26.50;83.30;;;;;;5043148;28;20583;-73
2023/09/03 07:39:20;;;;;;;0.00;0.00;;;26.80;82.70;;;;;;5042941;28;20511;-74
2023/09/03 07:41:46;;;;;;;0.00;0.00;;;27.40;80.20;;;;;;5043051;28;20108;-73
2023/09/03 07:44:12;;;;;;;0.00;0.00;;;27.40;78.80;;;;;;5043506;28;20035;-74
2023/09/03 07:46:37;;;;;;;0.00;0.00;;;27.50;78.10;;;;;;5043422;28;20033;-73
2023/09/03 07:49:03;;;;;;;0.00;0.00;;;28.10;75.80;;;;;;5044207;28;20032;-72
2023/09/03 07:51:29;;;;;;;0.00;0.00;;;28.60;75.10;;;;;;5043685;28;20083;-72
2023/09/03 07:53:54;;;;;;;0.00;0.00;;;28.60;73.30;;;;;;5043337;28;20078;-71
2023/09/03 07:56:20;;;;;;;0.00;0.00;;;28.70;71.50;;;;;;5043283;28;20049;-73
2023/09/03 07:58:46;;;;;;;0.00;0.00;;;29.20;71.60;;;;;;5043098;28;20033;-72
2023/09/03 08:01:14;;;;;;;0.00;0.00;;;29.60;71.90;;;;;;5043624;28;20102;-71
2023/09/03 08:03:41;;;;;;;0.00;0.00;;;29.90;71.10;;;;;;5043400;28;20140;-72
2023/09/03 08:06:07;;;;;;;0.00;0.00;;;30.00;70.10;;;;;;5042770;28;20029;-72
2023/09/03 08:08:33;;;;;;;;;;;30.70;70.30;;;;;;5043193;28;20698;-73
2023/09/03 08:10:59;;;;;;;0.00;0.00;;;30.60;68.90;;;;;;5045798;28;19908;-72
2023/09/03 08:13:25;;;;;;;;;;;30.00;68.70;;;;;;5043660;28;20136;-72
2023/09/03 08:15:51;;;;;;;0.00;0.00;;;30.20;67.10;;;;;;5042459;28;19909;-74
2023/09/03 08:18:16;;;;;;;;;;;30.90;67.30;;;;;;5042683;28;20036;-72
2023/09/03 08:20:42;;;;;;;0.00;0.00;;;31.30;65.10;;;;;;5042602;28;20568;-72
2023/09/03 08:23:11;;;;;;;;;;;30.80;65.60;;;;;;5042841;28;20068;-72
2023/09/03 08:25:37;;;;;;;0.00;0.00;;;31.80;63.00;;;;;;5042882;28;19908;-72
2023/09/03 08:28:03;;;;;;;0.00;0.00;;;32.90;63.40;;;;;;5043062;28;20701;-72
2023/09/03 08:30:29;;;;;;;0.00;0.00;;;32.30;60.20;;;;;;5042556;28;20028;-72
2023/09/03 08:32:55;;;;;;;0.00;0.00;;;32.60;61.10;;;;;;5036793;28;20115;-71
2023/09/03 08:35:20;;;;;;;;;;;32.30;62.00;;;;;;5043555;28;20126;-72
2023/09/03 08:37:46;;;;;;;0.00;0.00;;;32.50;61.50;;;;;;5042563;28;20372;-72
2023/09/03 08:40:11;;;;;;;;;;;32.70;60.20;;;;;;5043932;28;20526;-72
2023/09/03 08:42:41;;;;;;;0.00;0.00;;;32.40;59.70;;;;;;5042446;28;19916;-72
2023/09/03 08:45:12;;;;;;;0.00;0.00;;;33.80;60.70;;;;;;5042611;28;20037;-71
2023/09/03 08:47:40;;;;;;;0.00;0.00;;;33.60;60.30;;;;;;5033458;28;20095;-72
2023/09/03 08:50:10;;;;;;;0.00;0.00;;;33.50;58.60;;;;;;5042791;28;20068;-72
2023/09/03 08:52:37;;;;;;;0.00;0.00;;;33.90;59.00;;;;;;5042719;28;20024;-73
2023/09/03 08:55:04;;;;;;;0.00;0.00;;;34.10;58.40;;;;;;5042123;28;20112;-72
2023/09/03 08:57:30;;;;;;;0.00;0.00;;;34.50;58.80;;;;;;5042169;28;20449;-73
2023/09/03 08:59:56;;;;;;;0.00;0.00;;;34.30;56.10;;;;;;5042364;28;20778;-72
2023/09/03 09:02:24;;;;;;;0.00;0.00;;;35.20;56.50;;;;;;5040985;28;20650;-73
2023/09/03 09:04:50;;;;;;;0.00;0.00;;;35.10;54.90;;;;;;5042763;28;20128;-73
2023/09/03 09:07:18;;;;;;;0.08;0.08;;;35.40;56.10;;;;;;5042785;28;20043;-73
2023/09/03 09:09:46;;;;;;;0.00;0.00;;;35.30;53.30;;;;;;5042638;28;20741;-73
2023/09/03 09:12:27;;;;;;;0.00;0.00;;;34.10;51.30;;;;;;5042230;28;20025;-72
2023/09/03 09:14:59;;;;;;;2.63;1.15;;;34.70;51.80;;;;;;5042262;28;20036;-72
2023/09/03 09:17:25;;;;;;;0.00;0.00;;;35.40;52.10;;;;;;5040528;28;20037;-71
2023/09/03 09:19:51;;;;;;;0.00;0.00;;;36.10;50.80;;;;;;5041986;28;20113;-74
2023/09/03 09:22:17;;;;;;;0.00;0.00;;;35.60;50.90;;;;;;5042311;28;20494;-73
2023/09/03 09:24:44;;;;;;;0.00;0.00;;;34.50;51.90;;;;;;5042389;28;20035;-73
2023/09/03 09:27:17;;;;;;;0.00;0.00;;;35.90;53.10;;;;;;5042796;28;20078;-72
2023/09/03 09:29:43;;;;;;;0.00;0.00;;;36.30;51.70;;;;;;5045815;28;20021;-73
2023/09/03 09:32:20;;;;;;;0.00;0.00;;;35.70;50.30;;;;;;5043781;28;20496;-72
2023/09/03 09:34:47;;;;;;;0.00;0.00;;;36.90;48.80;;;;;;5048042;28;20057;-73
2023/09/03 09:37:13;;;;;;;0.00;0.00;;;36.30;49.80;;;;;;5045765;28;20043;-73
2023/09/03 09:39:49;;;;;;;0.00;0.00;;;36.40;49.30;;;;;;5046133;28;20029;-72
2023/09/03 09:42:18;;;;;;;0.00;0.00;;;37.10;49.70;;;;;;5045589;28;20021;-72
2023/09/03 09:44:53;;;;;;;0.00;0.00;;;37.00;48.40;;;;;;5045690;28;20025;-72
2023/09/03 09:47:20;;;;;;;0.00;0.00;;;36.10;47.50;;;;;;5044391;28;20492;-72
2023/09/03 09:49:46;;;;;;;0.00;0.00;;;36.00;45.90;;;;;;5045448;28;20033;-72
2023/09/03 09:52:16;;;;;;;0.00;0.00;;;36.80;46.70;;;;;;5045463;28;20025;-73
2023/09/03 09:54:43;;;;;;;0.00;0.00;;;36.90;44.80;;;;;;5045432;28;20052;-72
2023/09/03 09:57:21;;;;;;;0.00;0.00;;;36.40;45.70;;;;;;5045219;28;20037;-72
2023/09/03 09:59:55;;;;;;;0.00;0.00;;;36.30;47.50;;;;;;5045329;28;20446;-72
2023/09/03 10:02:22;;;;;;;0.00;0.00;;;35.00;47.80;;;;;;5038014;28;20036;-72
2023/09/03 10:04:49;;;;;;;0.00;0.00;;;34.40;48.60;;;;;;5043670;28;20025;-72
2023/09/03 10:07:15;;;;;;;0.00;0.00;;;35.20;48.00;;;;;;5044941;28;20021;-72
2023/09/03 10:09:42;;;;;;;;;;;34.40;48.60;;;;;;5044409;28;20025;-73
2023/09/03 10:12:09;;;;;;;0.00;0.00;;;33.50;44.60;;;;;;5045398;28;19908;-73
2023/09/03 10:14:35;;;;;;;0.00;0.00;;;33.30;46.00;;;;;;5045265;28;20029;-72
2023/09/03 10:17:02;;;;;;;;;;;32.20;47.50;;;;;;5045387;28;20029;-73
2023/09/03 10:19:47;;;;;;;0.00;0.00;;;32.10;51.20;;;;;;5044821;28;20492;-73
2023/09/03 10:22:16;;;;;;;0.00;0.00;;;31.50;50.20;;;;;;5036810;28;20028;-73
2023/09/03 10:24:44;;;;;;;0.00;0.00;;;31.40;52.80;;;;;;5045290;28;20260;-71
2023/09/03 10:27:14;;;;;;;0.00;0.00;;;31.10;48.60;;;;;;5039100;28;20029;-72
2023/09/03 10:29:42;;;;;;;8.38;5.93;;;31.20;49.20;;;;;;5045109;28;20029;-72
2023/09/03 10:32:12;;;;;;;0.00;0.00;;;30.90;49.40;;;;;;5040476;28;20065;-73
2023/09/03 10:34:38;;;;;;;0.00;0.00;;;30.90;48.50;;;;;;5044785;28;20133;-71
2023/09/03 10:37:08;;;;;;;0.00;0.00;;;31.00;49.80;;;;;;5045231;28;20041;-73
2023/09/03 10:39:35;;;;;;;0.00;0.00;;;30.70;49.50;;;;;;5043666;28;20821;-72
2023/09/03 10:42:16;;;;;;;0.00;0.00;;;31.00;51.50;;;;;;5044306;28;20028;-73
2023/09/03 10:44:42;;;;;;;0.17;0.17;;;31.10;47.10;;;;;;5042951;28;20025;-72
2023/09/03 10:47:10;;;;;;;0.00;0.00;;;30.60;47.00;;;;;;5045037;28;20661;-71
2023/09/03 10:49:43;;;;;;;0.00;0.00;;;30.40;45.30;;;;;;5044288;28;20701;-72
2023/09/03 10:52:28;;;;;;;0.00;0.00;;;30.40;47.30;;;;;;5041841;28;20036;-72
2023/09/03 10:55:14;;;;;;;0.00;0.00;;;30.60;45.60;;;;;;5043350;28;20021;-72
2023/09/03 10:57:39;;;;;;;;;;;30.70;45.20;;;;;;5038869;28;20044;-73
2023/09/03 11:00:06;;;;;;;0.00;0.00;;;30.40;46.50;;;;;;5044524;28;19908;-71
2023/09/03 11:02:34;;;;;;;0.00;0.00;;;30.60;46.10;;;;;;5044178;28;20046;-72
2023/09/03 11:05:19;;;;;;;0.20;0.20;;;30.70;45.90;;;;;;5042932;28;20055;-71
2023/09/03 11:07:46;;;;;;;0.00;0.00;;;30.40;46.20;;;;;;5043009;28;20114;-72
2023/09/03 11:10:21;;;;;;;0.00;0.00;;;30.50;47.80;;;;;;5044415;28;20050;-71
2023/09/03 11:12:47;;;;;;;0.00;0.00;;;30.10;47.10;;;;;;5043964;28;20061;-72
2023/09/03 11:15:16;;;;;;;0.00;0.00;;;30.40;47.70;;;;;;5043893;28;20025;-73
2023/09/03 11:17:52;;;;;;;0.00;0.00;;;30.40;47.00;;;;;;5044397;28;20175;-72
2023/09/03 11:20:36;;;;;;;0.00;0.00;;;30.20;46.00;;;;;;5044101;28;20067;-73
2023/09/03 11:23:03;;;;;;;0.00;0.00;;;29.90;45.70;;;;;;5043346;28;20571;-72
2023/09/03 11:25:40;;;;;;;0.00;0.00;;;30.00;47.00;;;;;;5044047;28;20139;-71
2023/09/03 11:28:08;;;;;;;0.00;0.00;;;30.00;46.00;;;;;;5038178;28;20032;-72
2023/09/03 11:30:34;;;;;;;0.00;0.00;;;30.00;45.60;;;;;;5044330;28;20025;-72
2023/09/03 11:33:00;;;;;;;;;;;30.00;48.10;;;;;;5040481;28;20021;-72
2023/09/03 11:35:26;;;;;;;0.00;0.00;;;29.90;46.70;;;;;;5043925;28;19971;-72
2023/09/03 11:37:53;;;;;;;0.00;0.00;;;29.90;47.60;;;;;;5042803;28;20049;-72
2023/09/03 11:40:28;;;;;;;0.00;0.00;;;30.00;50.30;;;;;;5043654;28;20036;-72
2023/09/03 11:42:54;;;;;;;0.00;0.00;;;30.00;51.50;;;;;;5043650;28;20070;-72
2023/09/03 11:45:20;;;;;;;0.00;0.00;;;29.90;47.60;;;;;;5043714;28;20029;-72
2023/09/03 11:47:50;;;;;;;0.00;0.00;;;29.70;48.00;;;;;;5043359;28;20571;-74
2023/09/03 11:50:17;;;;;;;0.00;0.00;;;29.80;49.10;;;;;;5043217;28;20035;-73
2023/09/03 11:52:56;;;;;;;0.00;0.00;;;29.80;48.90;;;;;;5043142;28;20025;-73
2023/09/03 11:55:29;;;;;;;0.00;0.00;;;29.70;48.30;;;;;;5043375;28;20091;-72
2023/09/03 11:58:00;;;;;;;0.00;0.00;;;29.60;47.00;;;;;;5042801;28;20044;-71
2023/09/03 12:00:27;;;;;;;0.00;0.00;;;29.70;48.40;;;;;;5043396;28;20040;-71
2023/09/03 12:02:54;;;;;;;0.00;0.00;;;29.70;50.40;;;;;;5040800;28;20124;-72
2023/09/03 12:05:20;;;;;;;0.00;0.00;;;29.70;49.40;;;;;;5043355;28;20025;-72
2023/09/03 12:07:46;;;;;;;;;;;29.60;47.90;;;;;;5042841;28;20033;-72
2023/09/03 12:10:18;;;;;;;0.00;0.00;;;29.60;47.80;;;;;;5043338;28;19986;-73
2023/09/03 12:12:44;;;;;;;0.00;0.00;;;29.70;48.10;;;;;;5043105;28;20024;-74
2023/09/03 12:15:18;;;;;;;0.00;0.00;;;29.60;49.20;;;;;;5042836;28;20100;-72
2023/09/03 12:17:43;;;;;;;0.00;0.00;;;29.60;48.30;;;;;;5042617;28;20047;-72
2023/09/03 12:20:29;;;;;;;2.80;0.88;;;29.50;47.90;;;;;;5038603;28;20445;-73
2023/09/03 12:22:55;;;;;;;0.00;0.00;;;29.40;47.90;;;;;;5040049;28;20041;-72
2023/09/03 12:25:21;;;;;;;0.20;0.20;;;29.50;48.50;;;;;;5040990;28;20032;-73
2023/09/03 12:27:48;;;;;;;0.00;0.00;;;29.60;47.80;;;;;;5040505;28;20414;-73
2023/09/03 12:30:15;;;;;;;0.00;0.00;;;29.60;48.80;;;;;;5041408;28;20452;-72
2023/09/03 12:32:41;;;;;;;0.00;0.00;;;29.70;48.60;;;;;;5039384;28;20056;-72
2023/09/03 12:35:18;;;;;;;0.00;0.00;;;29.50;51.20;;;;;;5039117;28;20140;-73
2023/09/03 12:37:44;;;;;;;0.00;0.00;;;29.60;50.90;;;;;;5029471;28;20039;-73
2023/09/03 12:40:10;;;;;;;0.00;0.00;;;29.60;49.00;;;;;;5041948;28;20033;-72
2023/09/03 12:42:36;;;;;;;0.00;0.00;;;29.60;48.50;;;;;;5041682;28;20037;-72
2023/09/03 12:45:02;;;;;;;0.00;0.00;;;29.70;51.00;;;;;;5040248;28;20032;-72
2023/09/03 12:47:28;;;;;;;0.00;0.00;;;29.80;49.80;;;;;;5041254;28;20029;-74
2023/09/03 12:49:55;;;;;;;0.00;0.00;;;29.60;49.30;;;;;;5037386;28;20037;-72
2023/09/03 12:52:21;;;;;;;0.00;0.00;;;29.80;48.40;;;;;;5037032;28;20033;-72
2023/09/03 12:54:46;;;;;;;0.00;0.00;;;29.80;48.20;;;;;;5039595;28;20118;-74